Adams Lake, Indiana
Current Conditions -  °F | °C
As of 3:15 PM on Sunday 23 Nov 2014 (Local Time) from KANQ Reporting Station
Overcast Overcast  
Wind Chill: 52°   Ceiling: 2300
Heat Index: 52°   Visibility: 5mi
Dew Point: 39°   Wind: 9mph
Humidity: 62%   Direction: 140°SE
Pressure: 29.65"   Gusts: NA
Location:  41.5677°N, 85.3125°W
Report Text: KANQ 232015Z AUTO 14008KT 5SM BKN023 BKN028 OVC045 11/04 A2965 RMK
Loading
Personal Weather Stations






























Interactive Weather Map New forecast layout! Learn more

10-Day Weather Forecast

Advertisements
Track Severe Weather on mobile